| Date | Time | Temp. (oF) | Dew Point (oF) | Rel. Hum. (%) | Press. (in.) | Wind Dir. | Wind Speed (mph) | Hourly Rainfall (in.) |
|
|---|---|---|---|---|---|---|---|---|---|
| 1 | 04/04 | 00:00 | 37 | 36 | 98 | 30.26 | SE | 2 | 0.00 |
| 2 | 04/03 | 23:00 | 37 | 36 | 97 | 30.30 | NE | 0 | 0.04 |
| 3 | 04/03 | 22:00 | 37 | 35 | 94 | 30.33 | ESE | 4 | 0.05 |
| 4 | 04/03 | 21:00 | 37 | 34 | 90 | 30.35 | S | 3 | 0.03 |
| 5 | 04/03 | 20:00 | 41 | 34 | 77 | 30.35 | SSW | 9 | 0.00 |
| 6 | 04/03 | 19:00 | 44 | 32 | 64 | 30.36 | S | 13 | 0.00 |
| 7 | 04/03 | 18:00 | 46 | 24 | 43 | 30.37 | S | 16 | 0.00 |
| 8 | 04/03 | 17:00 | 49 | 24 | 39 | 30.36 | S | 9 | 0.00 |
| 9 | 04/03 | 16:00 | 49 | 22 | 35 | 30.38 | S | 5 | 0.00 |
| 10 | 04/03 | 15:00 | 51 | 19 | 29 | 30.41 | SSE | 4 | 0.00 |
| 11 | 04/03 | 14:00 | 50 | 17 | 27 | 30.43 | S | 5 | 0.00 |
| 12 | 04/03 | 13:00 | 49 | 18 | 30 | 30.45 | S | 11 | 0.00 |
| 13 | 04/03 | 12:00 | 49 | 20 | 33 | 30.48 | SSW | 7 | 0.00 |
| 14 | 04/03 | 11:00 | 47 | 21 | 37 | 30.49 | SE | 5 | 0.00 |
| 15 | 04/03 | 10:00 | 44 | 22 | 43 | 30.52 | SSE | 4 | 0.00 |
| 16 | 04/03 | 09:00 | 40 | 23 | 51 | 30.53 | ESE | 8 | 0.00 |
| 17 | 04/03 | 08:00 | 35 | 29 | 80 | 30.55 | ENE | 4 | 0.00 |
| 18 | 04/03 | 07:00 | 26 | 25 | 96 | 30.53 | E | 0 | 0.00 |
| 19 | 04/03 | 06:00 | 26 | 24 | 95 | 30.52 | ENE | 0 | 0.00 |
| 20 | 04/03 | 05:00 | 27 | 25 | 93 | 30.52 | E | 0 | 0.00 |
| 21 | 04/03 | 04:00 | 28 | 25 | 91 | 30.51 | ENE | 1 | 0.00 |
| 22 | 04/03 | 03:00 | 29 | 24 | 84 | 30.51 | NW | 0 | 0.00 |
| 23 | 04/03 | 02:00 | 29 | 25 | 85 | 30.51 | NW | 0 | 0.00 |
| 24 | 04/03 | 01:00 | 31 | 24 | 76 | 30.49 | NNW | 1 | 0.00 |